Terminal Aerodrome Forecast
Issued by NWS

Home | Current Version | Previous Version | Graphics & Text | Print | Product List | Glossary Off
Versions: 1 2 3 4 5 6 7 8 9 10 11 12 13 14 15 16 17 18 19 20 21 22 23 24 25 26 27 28 29 30 31 32 33 34 35 36 37 38 39 40 41 42 43 44 45 46 47 48

000
FTUS43 KDDC 181142 AAA
TAFHYS
TAF AMD
KHYS 181142Z 1812/1912 12005KT 1SM BR OVC005
     FM181500 17012G20KT P6SM SCT030
      TEMPO 1822/1902 5SM -TSRA OVC030CB
     FM190300 VRB06KT P6SM BKN250=

USA.gov is the U.S. government's official web portal to all federal, state and local government web resources and services.